Thorp, Washington
Current Conditions -  °F | °C
As of 1:53 AM on Saturday 01 Nov 2014 (Local Time) from KELN Reporting Station
Clear Clear  
Wind Chill: 41°   Ceiling: Unl
Heat Index: 46°   Visibility: 10mi
Dew Point: 37°   Wind: 10mph
Humidity: 71%   Direction: 320°NW
Pressure: 29.77"   Gusts: NA
Location:  47.07°N, 120.67°W
Report Text: KELN 010853Z AUTO 32009KT 10SM CLR 08/03 A2977 RMK AO2 SLP085 T00780028 58006
Loading
Personal Weather Stations






























Interactive Weather Map
Tropical Storm Tracking
New forecast layout! Learn more

10-Day Weather Forecast

Advertisements
Track Severe Weather on mobile